Time;durP1;ratioP1;P1;durP2;ratioP2;P2;SDS_P1;SDS_P2;PMS_P1;PMS_P2;Temp;Humidity;BMP_temperature;BMP_pressure;BME280_temperature;BME280_humidity;BME280_pressure;Samples;Min_cycle;Max_cycle;Signal;HPM_P1;HPM_P2
2023/04/24 00:01:50;;;;;;;12.02;8.55;;;;;;;8.77;84.33;100006.66;4983428;28;20499;-52
2023/04/24 00:04:16;;;;;;;9.80;7.93;;;;;;;8.78;84.12;100000.47;4983071;28;20026;-52
2023/04/24 00:06:42;;;;;;;12.32;7.63;;;;;;;8.78;84.12;99995.22;4992095;28;20041;-51
2023/04/24 00:09:09;;;;;;;10.60;7.00;;;;;;;8.85;84.09;99996.59;4986003;28;20038;-52
2023/04/24 00:11:36;;;;;;;10.45;7.35;;;;;;;8.86;84.10;99993.03;4983785;28;20034;-52
2023/04/24 00:14:01;;;;;;;11.70;7.65;;;;;;;8.94;84.40;99980.31;4976313;28;20030;-52
2023/04/24 00:16:26;;;;;;;12.02;8.40;;;;;;;8.99;84.15;99977.44;4992857;28;20434;-52
2023/04/24 00:18:55;;;;;;;10.23;7.68;;;;;;;9.05;83.89;99981.56;4993296;28;20072;-52
2023/04/24 00:21:25;;;;;;;10.27;8.10;;;;;;;9.13;83.49;99974.09;4980774;28;20039;-52
2023/04/24 00:23:50;;;;;;;10.30;7.20;;;;;;;9.22;83.09;99963.09;4992898;28;20455;-52
2023/04/24 00:26:16;;;;;;;10.45;7.85;;;;;;;9.31;82.99;99959.09;4992752;28;20045;-51
2023/04/24 00:28:41;;;;;;;9.25;7.13;;;;;;;9.42;82.99;99954.09;4993640;28;20090;-52
2023/04/24 00:31:07;;;;;;;10.77;8.35;;;;;;;9.45;82.85;99947.78;4994877;28;20030;-52
2023/04/24 00:33:32;;;;;;;8.65;7.13;;;;;;;9.46;82.85;99944.22;4994113;28;20022;-52
2023/04/24 00:35:58;;;;;;;9.70;7.35;;;;;;;9.51;82.25;99952.75;4974314;28;20120;-52
2023/04/24 00:38:24;;;;;;;14.35;8.13;;;;;;;9.61;82.31;99950.47;4974651;28;20039;-52
2023/04/24 00:40:50;;;;;;;12.05;7.35;;;;;;;9.58;82.27;99951.50;4976195;28;20041;-52
2023/04/24 00:43:16;;;;;;;10.65;7.90;;;;;;;9.62;82.50;99944.25;4993905;28;20034;-52
2023/04/24 00:45:42;;;;;;;11.43;6.90;;;;;;;9.64;82.00;99943.22;4988371;28;20519;-52
2023/04/24 00:48:08;;;;;;;9.05;7.30;;;;;;;9.65;81.96;99947.59;4992729;28;20022;-51
2023/04/24 00:50:36;;;;;;;11.15;8.65;;;;;;;9.64;82.28;99942.38;4992868;28;20045;-52
2023/04/24 00:53:01;;;;;;;9.82;7.35;;;;;;;9.59;81.98;99940.00;4990693;28;20054;-52
2023/04/24 00:55:27;;;;;;;12.30;8.52;;;;;;;9.56;82.22;99961.25;4986103;28;20142;-52
2023/04/24 00:57:52;;;;;;;13.75;7.53;;;;;;;9.52;82.17;99949.19;4993845;28;20452;-52
2023/04/24 01:00:18;;;;;;;8.93;7.20;;;;;;;9.44;82.91;99951.38;4993796;28;20034;-52
2023/04/24 01:02:44;;;;;;;10.27;7.32;;;;;;;9.40;83.18;99944.56;4974180;28;20037;-52
2023/04/24 01:05:11;;;;;;;10.38;8.32;;;;;;;9.37;83.18;99945.59;4993623;28;20035;-52
2023/04/24 01:07:38;;;;;;;9.27;7.68;;;;;;;9.36;83.33;99944.72;4975488;28;20018;-51
2023/04/24 01:10:04;;;;;;;11.35;8.30;;;;;;;9.35;83.13;99939.53;4973404;28;20053;-51
2023/04/24 01:12:30;;;;;;;11.05;8.82;;;;;;;9.34;83.31;99941.31;4990535;28;20018;-53
2023/04/24 01:14:56;;;;;;;11.45;8.13;;;;;;;9.27;83.58;99942.59;4976083;28;20132;-51
2023/04/24 01:17:22;;;;;;;10.52;8.00;;;;;;;9.18;83.12;99941.28;4991262;28;21421;-52
2023/04/24 01:19:47;;;;;;;12.95;8.88;;;;;;;9.13;83.53;99934.56;4991745;28;20632;-51
2023/04/24 01:22:16;;;;;;;10.38;8.38;;;;;;;9.11;84.20;99928.50;4989324;28;20030;-51
2023/04/24 01:24:43;;;;;;;13.25;8.98;;;;;;;9.09;84.34;99925.09;4992842;28;20144;-51
2023/04/24 01:27:09;;;;;;;11.40;8.10;;;;;;;9.16;84.50;99931.75;4990250;28;20034;-52
2023/04/24 01:29:35;;;;;;;12.38;8.32;;;;;;;9.26;83.57;99937.41;4989241;28;20118;-51
2023/04/24 01:32:00;;;;;;;13.30;8.18;;;;;;;9.19;84.25;99937.72;4992285;28;20173;-51
2023/04/24 01:34:26;;;;;;;10.68;8.30;;;;;;;9.13;84.14;99926.63;4993189;28;20034;-52
2023/04/24 01:36:51;;;;;;;11.95;8.88;;;;;;;9.11;84.23;99912.69;4991552;28;20081;-52
2023/04/24 01:39:17;;;;;;;12.48;9.40;;;;;;;9.09;84.42;99923.31;4991142;28;20042;-52
2023/04/24 01:41:43;;;;;;;17.00;9.55;;;;;;;9.06;84.71;99926.13;4992768;28;20033;-52
2023/04/24 01:44:08;;;;;;;10.63;8.45;;;;;;;9.05;84.56;99924.41;4989825;28;20109;-51
2023/04/24 01:46:35;;;;;;;11.27;8.77;;;;;;;9.09;84.61;99919.81;4991748;28;20335;-51
2023/04/24 01:49:01;;;;;;;10.38;8.02;;;;;;;9.07;84.39;99925.19;4991160;28;20073;-51
2023/04/24 01:51:26;;;;;;;11.80;8.65;;;;;;;9.04;84.35;99927.13;4991860;28;20054;-51
2023/04/24 01:53:53;;;;;;;12.32;8.93;;;;;;;9.00;84.77;99922.00;4992765;28;20037;-51
2023/04/24 01:56:20;;;;;;;13.07;8.95;;;;;;;9.00;84.94;99927.28;4992687;28;20027;-51
2023/04/24 01:58:46;;;;;;;13.75;8.80;;;;;;;9.07;85.00;99922.56;4990531;28;20033;-51
2023/04/24 02:01:18;;;;;;;10.13;8.27;;;;;;;9.13;84.37;99914.31;4991549;28;20035;-51
2023/04/24 02:03:43;;;;;;;10.35;9.18;;;;;;;9.08;84.67;99907.59;4986589;28;20081;-53
2023/04/24 02:06:09;;;;;;;12.43;9.73;;;;;;;9.07;84.79;99900.59;4986398;28;20030;-51
2023/04/24 02:08:34;;;;;;;11.75;8.95;;;;;;;9.07;84.71;99900.59;4996120;28;20037;-51
2023/04/24 02:11:01;;;;;;;13.52;9.00;;;;;;;9.06;84.82;99906.81;4995798;28;20037;-51
2023/04/24 02:13:27;;;;;;;12.77;8.90;;;;;;;9.04;85.26;99896.34;4996528;28;20038;-51
2023/04/24 02:15:52;;;;;;;11.60;9.13;;;;;;;9.08;84.97;99903.16;4992776;28;20107;-52
2023/04/24 02:18:18;;;;;;;12.93;8.68;;;;;;;9.13;84.71;99900.28;4996636;28;20034;-51
2023/04/24 02:20:43;;;;;;;11.48;8.13;;;;;;;9.14;84.76;99907.25;4996492;28;20088;-51
2023/04/24 02:23:08;;;;;;;9.48;8.30;;;;;;;9.21;84.70;99902.50;4996345;28;20026;-51
2023/04/24 02:25:34;;;;;;;14.18;8.88;;;;;;;9.20;84.29;99901.63;4989621;28;20050;-51
2023/04/24 02:27:59;;;;;;;12.27;9.13;;;;;;;9.18;84.64;99906.16;4975328;28;20367;-51
2023/04/24 02:30:25;;;;;;;10.35;8.65;;;;;;;9.19;84.64;99899.97;4997162;28;20030;-53
2023/04/24 02:32:51;;;;;;;10.18;8.45;;;;;;;9.19;84.44;99899.97;4996722;28;20034;-52
2023/04/24 02:35:16;;;;;;;13.63;9.35;;;;;;;9.22;84.54;99905.06;4992789;28;20031;-51
2023/04/24 02:37:42;;;;;;;12.52;9.70;;;;;;;9.28;84.42;99909.16;4993277;28;20027;-52
2023/04/24 02:40:08;;;;;;;13.75;8.80;;;;;;;9.30;84.58;99902.88;4996076;28;20030;-53
2023/04/24 02:42:33;;;;;;;10.23;8.50;;;;;;;9.37;84.27;99893.69;4991063;28;20019;-52
2023/04/24 02:44:59;;;;;;;13.82;9.25;;;;;;;9.34;84.38;99882.44;4987398;28;20022;-52
2023/04/24 02:47:25;;;;;;;10.68;8.40;;;;;;;9.35;84.33;99889.41;4994713;28;20034;-52
2023/04/24 02:49:50;;;;;;;10.38;8.75;;;;;;;9.33;84.22;99892.16;4994695;28;20084;-52
2023/04/24 02:52:16;;;;;;;11.57;8.88;;;;;;;9.34;83.94;99893.00;4981877;28;20497;-53
2023/04/24 02:54:42;;;;;;;17.33;9.10;;;;;;;9.42;84.09;99900.50;4993858;28;20026;-52
2023/04/24 02:57:08;;;;;;;13.73;8.77;;;;;;;9.43;84.11;99899.56;4990382;28;20030;-52
2023/04/24 02:59:33;;;;;;;14.80;9.82;;;;;;;9.44;83.95;99898.63;4994417;28;20056;-52
2023/04/24 03:01:59;;;;;;;12.35;9.60;;;;;;;9.42;84.29;99896.06;4993986;28;20035;-53
2023/04/24 03:04:25;;;;;;;11.50;8.82;;;;;;;9.46;84.02;99907.31;4982603;28;20141;-53
2023/04/24 03:06:52;;;;;;;14.15;9.32;;;;;;;9.47;84.10;99903.75;4990874;28;20326;-51
2023/04/24 03:09:18;;;;;;;11.88;8.85;;;;;;;9.46;83.88;99907.31;4992323;28;20541;-51
2023/04/24 03:11:43;;;;;;;10.35;8.75;;;;;;;9.46;83.93;99908.16;4981431;28;20026;-52
2023/04/24 03:14:09;;;;;;;13.48;8.50;;;;;;;9.48;84.00;99902.78;4992978;28;20069;-51
2023/04/24 03:16:34;;;;;;;10.02;8.32;;;;;;;9.49;84.20;99901.88;4992900;28;20050;-52
2023/04/24 03:18:59;;;;;;;10.93;8.18;;;;;;;9.54;83.79;99911.22;4981615;28;20038;-51
2023/04/24 03:21:26;;;;;;;14.10;8.43;;;;;;;9.52;84.04;99904.34;4986142;28;20037;-51
2023/04/24 03:23:51;;;;;;;10.80;8.63;;;;;;;9.52;84.34;99901.69;4988267;28;20498;-51
2023/04/24 03:26:17;;;;;;;12.48;8.65;;;;;;;9.52;84.44;99906.97;4987892;28;20026;-50
2023/04/24 03:28:42;;;;;;;10.73;7.75;;;;;;;9.55;84.00;99906.81;4978737;28;20573;-51
2023/04/24 03:31:08;;;;;;;14.07;8.70;;;;;;;9.57;84.43;99910.22;4978935;28;20055;-51
2023/04/24 03:33:33;;;;;;;13.18;7.72;;;;;;;9.61;83.97;99910.88;4985164;28;20026;-51
2023/04/24 03:35:58;;;;;;;10.32;8.23;;;;;;;9.60;84.24;99904.78;4992790;28;20053;-51
2023/04/24 03:38:24;;;;;;;11.45;8.20;;;;;;;9.60;84.29;99894.22;4995537;28;20037;-51
2023/04/24 03:40:49;;;;;;;10.50;8.98;;;;;;;9.61;84.46;99895.94;4994685;28;20512;-51
2023/04/24 03:43:15;;;;;;;9.32;7.70;;;;;;;9.62;83.91;99907.31;4993414;28;20044;-51
2023/04/24 03:45:41;;;;;;;9.98;8.40;;;;;;;9.60;84.52;99902.13;4995756;28;20088;-54
2023/04/24 03:48:07;;;;;;;10.52;8.98;;;;;;;9.56;84.50;99897.94;4996111;28;20665;-52
2023/04/24 03:50:33;;;;;;;10.77;7.90;;;;;;;9.56;84.73;99897.94;4977300;28;20106;-53
2023/04/24 03:52:59;;;;;;;12.10;8.75;;;;;;;9.61;84.93;99910.88;4988473;28;20035;-52
2023/04/24 03:55:24;;;;;;;10.85;8.70;;;;;;;9.56;84.41;99903.22;4975087;28;20049;-52
2023/04/24 03:57:50;;;;;;;15.73;8.90;;;;;;;9.49;84.47;99901.88;4995398;28;20027;-51
2023/04/24 04:00:15;;;;;;;11.20;8.57;;;;;;;9.42;85.46;99905.78;4985900;28;20033;-53
2023/04/24 04:02:41;;;;;;;10.93;8.77;;;;;;;9.28;85.71;99904.72;4994628;28;20045;-52
2023/04/24 04:05:07;;;;;;;10.65;7.90;;;;;;;9.17;85.63;99901.81;4994589;28;20039;-52
2023/04/24 04:07:33;;;;;;;12.18;8.05;;;;;;;9.11;86.17;99900.34;4994435;28;20082;-52
2023/04/24 04:09:58;;;;;;;14.00;9.48;;;;;;;9.10;86.22;99905.72;4992578;28;20454;-52
2023/04/24 04:12:24;;;;;;;12.75;8.95;;;;;;;9.02;86.46;99897.34;4993563;28;20030;-52
2023/04/24 04:14:49;;;;;;;11.77;7.55;;;;;;;8.96;86.37;99904.66;4994420;28;20045;-52
2023/04/24 04:17:15;;;;;;;10.88;8.50;;;;;;;8.97;86.97;99902.88;4993342;28;20111;-52
2023/04/24 04:19:40;;;;;;;17.50;10.15;;;;;;;8.97;87.64;99901.09;4980552;28;20031;-52
2023/04/24 04:22:07;;;;;;;15.60;9.40;;;;;;;9.00;87.80;99906.19;4993726;28;20028;-52
2023/04/24 04:24:33;;;;;;;13.98;9.88;;;;;;;9.05;87.47;99918.28;4993756;28;20034;-52
2023/04/24 04:27:00;;;;;;;20.42;10.75;;;;;;;9.05;87.38;99902.47;4994051;28;20037;-52
2023/04/24 04:29:25;;;;;;;15.55;9.45;;;;;;;9.10;87.39;99901.28;4993290;28;20054;-52
2023/04/24 04:31:52;;;;;;;13.55;9.27;;;;;;;9.11;87.32;99902.16;4994851;28;20068;-53
2023/04/24 04:34:18;;;;;;;13.65;9.85;;;;;;;9.11;87.01;99913.53;4989626;28;20429;-51
2023/04/24 04:36:44;;;;;;;14.43;9.90;;;;;;;9.07;87.19;99917.28;4983912;28;20026;-51
2023/04/24 04:39:09;;;;;;;12.98;9.32;;;;;;;9.08;87.28;99920.75;4992413;28;20684;-52
2023/04/24 04:41:35;;;;;;;12.63;8.98;;;;;;;9.14;87.49;99915.19;4992654;28;20026;-51
2023/04/24 04:44:01;;;;;;;13.20;8.70;;;;;;;9.22;87.27;99915.63;4992672;28;20671;-51
2023/04/24 04:46:27;;;;;;;11.05;8.13;;;;;;;9.32;87.04;99916.81;4991861;28;20459;-51
2023/04/24 04:48:56;;;;;;;9.43;7.55;;;;;;;9.36;86.44;99912.22;4994732;28;20068;-51
2023/04/24 04:51:22;;;;;;;10.07;6.70;;;;;;;9.63;85.19;99920.44;4992193;28;20033;-52
2023/04/24 04:53:47;;;;;;;8.07;6.07;;;;;;;9.76;84.77;99919.75;4994070;28;20110;-52
2023/04/24 04:56:13;;;;;;;8.65;6.72;;;;;;;9.88;84.01;99922.56;4991793;28;20097;-52
2023/04/24 04:58:38;;;;;;;10.25;6.55;;;;;;;9.90;83.84;99917.19;4976928;28;20122;-51
2023/04/24 05:01:04;;;;;;;6.88;5.30;;;;;;;10.01;83.27;99925.34;4993550;28;20462;-52
2023/04/24 05:03:30;;;;;;;7.68;5.55;;;;;;;10.11;83.07;99930.97;4993615;28;20038;-52
2023/04/24 05:05:55;;;;;;;6.53;5.03;;;;;;;10.13;82.47;99930.88;4988093;28;20031;-52
2023/04/24 05:08:21;;;;;;;7.00;4.45;;;;;;;10.20;82.31;99934.88;4981181;28;20026;-51
2023/04/24 05:10:46;;;;;;;10.65;4.22;;;;;;;10.30;81.06;99933.41;4992267;28;20026;-52
2023/04/24 05:13:11;;;;;;;9.45;4.30;;;;;;;10.29;81.42;99931.72;4982733;28;20066;-52
2023/04/24 05:15:37;;;;;;;5.55;4.40;;;;;;;10.39;80.64;99930.25;4991519;28;20061;-52
2023/04/24 05:18:02;;;;;;;5.05;3.60;;;;;;;10.41;79.84;99933.69;4974100;28;20494;-52
2023/04/24 05:20:28;;;;;;;8.85;3.50;;;;;;;10.44;79.89;99932.66;4993726;28;20053;-52
2023/04/24 05:22:53;;;;;;;5.28;3.30;;;;;;;10.40;80.48;99937.25;4991915;28;20026;-52
2023/04/24 05:25:19;;;;;;;6.10;4.03;;;;;;;10.41;79.93;99938.97;4990124;28;20036;-52
2023/04/24 05:27:46;;;;;;;4.60;3.75;;;;;;;10.45;80.27;99940.47;4990840;28;20350;-53
2023/04/24 05:30:12;;;;;;;4.45;3.25;;;;;;;10.47;79.91;99943.88;4992500;28;20037;-52
2023/04/24 05:32:37;;;;;;;4.18;3.03;;;;;;;10.47;80.08;99943.88;4993346;28;20029;-53
2023/04/24 05:35:03;;;;;;;4.05;3.35;;;;;;;10.52;79.31;99950.69;4991703;28;20116;-52
2023/04/24 05:37:29;;;;;;;5.22;3.08;;;;;;;10.58;79.45;99945.91;4991926;28;20038;-51
2023/04/24 05:39:54;;;;;;;7.75;3.55;;;;;;;10.61;79.17;99950.19;4992018;28;20040;-51
2023/04/24 05:42:20;;;;;;;5.45;3.28;;;;;;;10.72;78.48;99942.44;4990835;28;20028;-51
2023/04/24 05:44:45;;;;;;;7.22;2.83;;;;;;;10.80;77.93;99955.22;4992353;28;20039;-52
2023/04/24 05:47:11;;;;;;;4.70;2.47;;;;;;;10.87;77.67;99947.75;4991406;28;20033;-50
2023/04/24 05:49:36;;;;;;;3.13;2.10;;;;;;;10.95;77.22;99954.31;4992325;28;20062;-50
2023/04/24 05:52:03;;;;;;;2.90;2.28;;;;;;;11.01;77.14;99947.78;4992696;28;20045;-51
2023/04/24 05:54:29;;;;;;;11.43;2.42;;;;;;;11.11;77.13;99953.38;4992177;28;20566;-51
2023/04/24 05:56:55;;;;;;;4.38;2.08;;;;;;;11.14;76.48;99954.03;4991407;28;20125;-52
2023/04/24 05:59:21;;;;;;;2.60;1.70;;;;;;;11.19;75.89;99959.06;4987207;28;20022;-51
2023/04/24 06:01:46;;;;;;;5.25;2.80;;;;;;;11.25;75.43;99960.50;4992184;28;20014;-52
2023/04/24 06:04:13;;;;;;;3.50;2.25;;;;;;;11.33;74.69;99963.53;4975827;28;20112;-52
2023/04/24 06:06:39;;;;;;;2.85;1.60;;;;;;;11.42;75.00;99968.22;4989809;28;20057;-53
2023/04/24 06:09:04;;;;;;;3.45;1.67;;;;;;;11.58;74.65;99958.38;4990876;28;20112;-52
2023/04/24 06:11:30;;;;;;;3.47;1.40;;;;;;;11.68;73.04;99974.53;4991363;28;20018;-52
2023/04/24 06:13:55;;;;;;;5.07;1.45;;;;;;;11.82;72.55;99970.16;4990026;28;20065;-52
2023/04/24 06:16:21;;;;;;;2.72;1.35;;;;;;;11.97;72.03;99973.72;4992019;28;20312;-52
2023/04/24 06:18:47;;;;;;;2.08;1.10;;;;;;;12.09;71.24;99968.44;4991388;28;20037;-52
2023/04/24 06:21:12;;;;;;;3.97;1.50;;;;;;;12.28;70.50;99965.47;4991377;28;20034;-52
2023/04/24 06:23:38;;;;;;;2.35;1.10;;;;;;;12.27;70.08;99971.69;4991160;28;20037;-51
2023/04/24 06:26:03;;;;;;;2.28;1.30;;;;;;;12.38;69.57;99973.66;4991668;28;20041;-51
2023/04/24 06:28:29;;;;;;;2.42;0.95;;;;;;;12.39;68.36;99974.50;4991801;28;20035;-52
2023/04/24 06:30:55;;;;;;;1.73;1.00;;;;;;;12.26;68.84;99985.03;4992372;28;20038;-52
2023/04/24 06:33:21;;;;;;;5.32;1.73;;;;;;;12.19;68.43;99979.28;4988847;28;20031;-52
2023/04/24 06:35:46;;;;;;;3.58;1.23;;;;;;;12.15;69.07;99983.09;4990411;28;20380;-53
2023/04/24 06:38:11;;;;;;;4.15;1.00;;;;;;;12.18;68.39;99988.22;4992327;28;20026;-52
2023/04/24 06:40:37;;;;;;;1.40;0.98;;;;;;;12.29;68.61;99977.78;4992801;28;20433;-52
2023/04/24 06:43:02;;;;;;;1.55;0.82;;;;;;;12.33;67.48;99969.63;4989643;28;20096;-52
2023/04/24 06:45:29;;;;;;;1.40;0.93;;;;;;;12.36;67.61;99967.63;4991696;28;20030;-52
2023/04/24 06:47:55;;;;;;;2.97;1.25;;;;;;;12.39;67.27;99971.84;4996385;28;20454;-52
2023/04/24 06:50:20;;;;;;;2.08;1.17;;;;;;;12.43;67.02;99976.00;4990386;28;20035;-51
2023/04/24 06:52:46;;;;;;;1.27;0.70;;;;;;;12.41;67.19;99977.94;4993267;28;20033;-52
2023/04/24 06:55:11;;;;;;;2.00;0.65;;;;;;;12.45;67.07;99974.09;4997501;28;20038;-52
2023/04/24 06:57:37;;;;;;;3.67;2.13;;;;;;;12.50;67.52;99964.03;4997071;28;20033;-53
2023/04/24 07:00:05;;;;;;;2.30;0.90;;;;;;;12.54;67.41;99970.84;4987643;28;20026;-52
2023/04/24 07:02:30;;;;;;;3.33;0.80;;;;;;;12.50;66.45;99972.00;4992325;28;20034;-51
2023/04/24 07:04:56;;;;;;;3.58;0.98;;;;;;;12.53;66.26;99968.31;4995740;28;20399;-51
2023/04/24 07:07:23;;;;;;;1.02;0.73;;;;;;;12.54;65.97;99962.03;4993550;28;20091;-52
2023/04/24 07:09:50;;;;;;;1.05;0.75;;;;;;;12.66;64.83;99956.78;4992908;28;20032;-50
2023/04/24 07:12:16;;;;;;;2.33;0.73;;;;;;;12.77;64.50;99965.81;4994044;28;20065;-52
2023/04/24 07:14:42;;;;;;;2.80;0.73;;;;;;;12.97;64.26;99970.63;4995963;28;20022;-52
2023/04/24 07:17:07;;;;;;;1.52;1.10;;;;;;;13.08;62.77;99966.38;4993962;28;20483;-51
2023/04/24 07:19:35;;;;;;;3.03;0.75;;;;;;;13.21;62.46;99977.88;4996031;28;20038;-52
2023/04/24 07:22:01;;;;;;;1.27;0.70;;;;;;;13.31;61.29;99978.91;4993756;28;20458;-52
2023/04/24 07:24:26;;;;;;;1.23;0.80;;;;;;;13.48;60.74;99979.56;4993484;28;20105;-50
2023/04/24 07:26:52;;;;;;;2.30;0.93;;;;;;;13.47;60.97;99981.41;4992976;28;20065;-50
2023/04/24 07:29:18;;;;;;;1.42;0.80;;;;;;;13.65;60.67;99960.66;4995462;28;20486;-52
2023/04/24 07:31:43;;;;;;;2.17;0.95;;;;;;;13.79;60.85;99956.16;4993500;28;20034;-52
2023/04/24 07:34:09;;;;;;;1.13;0.60;;;;;;;13.67;60.33;99958.75;4994061;28;20042;-51
2023/04/24 07:36:34;;;;;;;2.03;0.70;;;;;;;13.95;59.93;99959.41;4994736;28;20076;-51
2023/04/24 07:39:00;;;;;;;2.97;0.70;;;;;;;14.20;58.81;99952.31;4995426;28;20104;-51
2023/04/24 07:41:27;;;;;;;1.35;0.70;;;;;;;14.34;56.57;99962.78;4995655;28;20121;-51
2023/04/24 07:43:53;;;;;;;1.75;0.68;;;;;;;14.50;55.68;99962.50;4994201;28;20118;-52
2023/04/24 07:46:19;;;;;;;1.73;0.70;;;;;;;14.21;55.16;99956.69;4995606;28;20034;-51
2023/04/24 07:48:46;;;;;;;4.57;0.50;;;;;;;14.47;56.00;99952.09;4994525;28;20026;-51
2023/04/24 07:51:13;;;;;;;3.67;1.20;;;;;;;14.71;55.53;99949.41;4993238;28;20042;-51
2023/04/24 07:53:38;;;;;;;1.27;0.55;;;;;;;14.62;56.49;99963.41;4993906;28;20455;-51
2023/04/24 07:56:04;;;;;;;1.02;0.55;;;;;;;14.43;55.26;99954.09;4994651;28;20034;-51
2023/04/24 07:58:30;;;;;;;1.65;0.75;;;;;;;14.48;56.45;99953.75;4992529;28;20026;-51
2023/04/24 08:00:55;;;;;;;3.95;0.60;;;;;;;14.61;55.55;99951.06;4994561;28;20072;-51
2023/04/24 08:03:21;;;;;;;2.47;0.38;;;;;;;14.98;54.93;99951.78;4995455;28;20038;-51
2023/04/24 08:05:46;;;;;;;0.90;0.43;;;;;;;14.91;54.88;99960.34;4995688;28;20113;-51
2023/04/24 08:08:12;;;;;;;1.60;0.57;;;;;;;14.91;54.90;99969.19;4987739;28;20068;-51
2023/04/24 08:10:37;;;;;;;2.15;0.80;;;;;;;14.74;55.37;99959.81;4981657;28;20019;-51
2023/04/24 08:13:03;;;;;;;3.17;0.60;;;;;;;14.82;54.38;99956.56;4991035;28;20497;-51
2023/04/24 08:15:28;;;;;;;1.10;0.85;;;;;;;15.06;54.27;99953.84;4991041;28;20422;-51
2023/04/24 08:17:54;;;;;;;4.10;1.25;;;;;;;15.13;54.36;99951.56;4994418;28;20062;-51
2023/04/24 08:20:19;;;;;;;2.47;0.88;;;;;;;14.99;54.87;99957.94;4994038;28;20351;-51
2023/04/24 08:22:47;;;;;;;1.45;0.60;;;;;;;14.67;55.86;99953.28;4985681;28;20034;-51
2023/04/24 08:25:12;;;;;;;8.93;1.50;;;;;;;14.92;55.78;99954.06;4986148;28;20034;-51
2023/04/24 08:27:38;;;;;;;3.53;1.10;;;;;;;14.97;55.03;99959.88;4992250;28;20455;-51
2023/04/24 08:30:04;;;;;;;1.63;0.60;;;;;;;15.18;54.97;99957.38;4993702;28;20518;-51
2023/04/24 08:32:30;;;;;;;2.60;0.60;;;;;;;15.10;55.67;99965.09;4994300;28;20450;-51
2023/04/24 08:34:56;;;;;;;0.77;0.50;;;;;;;15.41;55.11;99960.91;4991150;28;20038;-51
2023/04/24 08:37:25;;;;;;;0.82;0.40;;;;;;;15.26;55.42;99960.28;4989888;28;20096;-52
2023/04/24 08:39:51;;;;;;;4.05;1.02;;;;;;;15.10;55.69;99960.63;4993394;28;20023;-51
2023/04/24 08:42:18;;;;;;;1.77;0.70;;;;;;;15.51;54.71;99959.25;4991534;28;20022;-51
2023/04/24 08:44:44;;;;;;;2.22;0.95;;;;;;;15.41;54.68;99963.56;4992485;28;20049;-51
2023/04/24 08:47:10;;;;;;;4.00;0.65;;;;;;;15.46;55.30;99964.06;4992267;28;20066;-50
2023/04/24 08:49:36;;;;;;;2.08;0.77;;;;;;;15.47;55.02;99967.59;4992352;28;20041;-52
2023/04/24 08:52:02;;;;;;;1.25;0.40;;;;;;;15.59;55.16;99954.16;4986236;28;20109;-51
2023/04/24 08:54:28;;;;;;;1.77;0.60;;;;;;;15.33;55.21;99966.84;4990858;28;20446;-51
2023/04/24 08:56:58;;;;;;;1.92;0.80;;;;;;;15.29;55.31;99967.22;4991146;28;20064;-53
2023/04/24 08:59:23;;;;;;;5.22;1.30;;;;;;;15.17;55.21;99961.88;4975158;28;20443;-51
2023/04/24 09:01:49;;;;;;;1.85;0.40;;;;;;;15.30;54.83;99960.91;4988669;28;20076;-51
2023/04/24 09:04:16;;;;;;;1.63;0.73;;;;;;;15.08;54.70;99962.56;4986506;28;20037;-51
2023/04/24 09:06:42;;;;;;;1.90;0.43;;;;;;;15.53;53.66;99967.94;4988700;28;20643;-51
2023/04/24 09:09:08;;;;;;;0.88;0.57;;;;;;;15.36;54.13;99958.59;4988540;28;20446;-51
2023/04/24 09:11:34;;;;;;;3.45;0.85;;;;;;;15.41;53.38;99968.91;4988003;28;20509;-51
2023/04/24 09:14:00;;;;;;;0.95;0.40;;;;;;;15.48;53.39;99970.13;4988593;28;20038;-52
2023/04/24 09:16:26;;;;;;;1.75;0.57;;;;;;;15.65;52.87;99963.47;4989898;28;20042;-52
2023/04/24 09:18:52;;;;;;;1.52;0.45;;;;;;;15.86;52.62;99971.59;4988049;28;20032;-52
2023/04/24 09:21:20;;;;;;;3.92;0.68;;;;;;;16.17;52.34;99968.25;4986814;28;20054;-52
2023/04/24 09:23:46;;;;;;;1.63;0.73;;;;;;;15.84;51.94;99970.88;4987671;28;20026;-52
2023/04/24 09:26:12;;;;;;;1.52;0.50;;;;;;;15.49;53.08;99974.47;4987852;28;20407;-52
2023/04/24 09:28:40;;;;;;;8.02;0.68;;;;;;;15.52;53.18;99974.22;4987701;28;20026;-51
2023/04/24 09:31:12;;;;;;;1.02;0.60;;;;;;;14.95;54.53;99969.81;4989736;28;20065;-51
2023/04/24 09:33:38;;;;;;;2.15;0.88;;;;;;;14.92;54.87;99973.53;4969972;28;20066;-51
2023/04/24 09:36:03;;;;;;;1.23;0.80;;;;;;;14.90;54.61;99974.63;4988917;28;20034;-51
2023/04/24 09:38:33;;;;;;;1.05;0.60;;;;;;;15.11;53.75;99972.13;4990237;28;20032;-51
2023/04/24 09:41:02;;;;;;;2.70;1.00;;;;;;;15.18;54.01;99968.03;4988937;28;20401;-51
2023/04/24 09:43:28;;;;;;;1.35;0.77;;;;;;;15.58;53.58;99970.25;4986456;28;20034;-52
2023/04/24 09:45:56;;;;;;;0.60;0.30;;;;;;;15.69;51.80;99972.03;4989122;28;20577;-51
2023/04/24 09:48:38;;;;;;;1.77;0.70;;;;;;;15.95;51.48;99973.53;4987397;28;20201;-51
2023/04/24 09:51:06;;;;;;;;;;;;;;;16.12;51.24;99964.16;4989214;28;20026;-50
2023/04/24 09:53:32;;;;;;;8.77;1.35;;;;;;;16.17;49.61;99961.13;4986631;28;19925;-52
2023/04/24 09:56:08;;;;;;;1.13;0.50;;;;;;;15.92;49.81;99962.25;4987950;28;20038;-52
2023/04/24 09:58:35;;;;;;;2.00;0.50;;;;;;;15.39;51.18;99960.19;4986171;28;20096;-52
2023/04/24 10:01:01;;;;;;;1.35;0.63;;;;;;;15.43;51.38;99956.28;4986539;28;20033;-52
2023/04/24 10:03:27;;;;;;;2.75;1.02;;;;;;;15.47;52.02;99963.09;4988446;28;20019;-53
2023/04/24 10:05:53;;;;;;;2.97;0.65;;;;;;;15.21;52.39;99963.31;4988956;28;20121;-52
2023/04/24 10:08:19;;;;;;;2.08;0.60;;;;;;;15.33;52.19;99960.66;4987782;28;20037;-50
2023/04/24 10:10:45;;;;;;;4.43;0.80;;;;;;;14.95;52.94;99961.81;4986035;28;20042;-51
2023/04/24 10:13:13;;;;;;;3.70;1.45;;;;;;;15.02;52.88;99963.03;4983660;28;20069;-53
2023/04/24 10:15:40;;;;;;;2.20;0.80;;;;;;;14.89;53.34;99964.94;4989886;28;20514;-53
2023/04/24 10:18:06;;;;;;;0.95;0.38;;;;;;;14.79;53.56;99962.97;4987389;28;20648;-53
2023/04/24 10:20:32;;;;;;;3.80;0.50;;;;;;;14.89;53.38;99959.63;4990679;28;20041;-53
2023/04/24 10:22:58;;;;;;;1.05;0.50;;;;;;;15.24;53.44;99956.91;4998483;28;20030;-52
2023/04/24 10:25:26;;;;;;;0.98;0.50;;;;;;;15.33;52.25;99944.69;4993109;28;20109;-52
2023/04/24 10:27:52;;;;;;;3.17;0.60;;;;;;;15.55;52.38;99955.34;4989067;28;20031;-52
2023/04/24 10:30:19;;;;;;;1.40;0.60;;;;;;;15.84;51.57;99946.88;5008291;28;20092;-52
2023/04/24 10:32:44;;;;;;;1.40;0.50;;;;;;;15.87;51.10;99943.97;4992471;28;20038;-51
2023/04/24 10:35:12;;;;;;;1.67;0.50;;;;;;;16.15;50.10;99942.56;4988933;28;20057;-52
2023/04/24 10:37:40;;;;;;;4.43;1.08;;;;;;;15.92;51.43;99951.56;4988231;28;20058;-50
2023/04/24 10:40:08;;;;;;;6.75;0.70;;;;;;;15.77;51.69;99948.34;4985253;28;20038;-52
2023/04/24 10:42:33;;;;;;;1.33;0.75;;;;;;;15.55;53.31;99954.50;4991920;28;20034;-53
2023/04/24 10:45:01;;;;;;;1.38;0.50;;;;;;;15.23;55.13;99945.44;4986576;28;20037;-52
2023/04/24 10:47:27;;;;;;;3.78;0.75;;;;;;;14.90;55.90;99959.50;4988627;28;20063;-52
2023/04/24 10:49:52;;;;;;;4.65;0.70;;;;;;;14.67;59.84;99969.22;4973380;28;20030;-51
2023/04/24 10:52:18;;;;;;;6.07;1.20;;;;;;;14.04;64.92;99966.72;4993825;28;20034;-51
2023/04/24 10:54:47;;;;;;;8.52;1.00;;;;;;;13.50;67.45;99961.72;4972995;28;20074;-52
2023/04/24 10:57:22;;;;;;;3.70;0.70;;;;;;;13.27;69.11;99958.84;4992950;28;20403;-52
2023/04/24 10:59:50;;;;;;;3.33;1.25;;;;;;;14.53;65.36;99956.91;4993441;28;20023;-51
2023/04/24 11:02:16;;;;;;;1.98;0.82;;;;;;;16.06;62.18;99953.13;4990556;28;20043;-51
2023/04/24 11:04:46;;;;;;;2.58;1.00;;;;;;;16.88;61.60;99949.94;4981824;28;20058;-51
2023/04/24 11:07:11;;;;;;;1.20;0.70;;;;;;;16.64;62.94;99951.00;4989566;28;20061;-51
2023/04/24 11:09:40;;;;;;;2.45;0.60;;;;;;;17.78;59.27;99949.25;4991682;28;20447;-51
2023/04/24 11:12:14;;;;;;;4.88;0.73;;;;;;;18.53;55.35;99943.47;4990311;28;20427;-51
2023/04/24 11:14:59;;;;;;;1.85;0.43;;;;;;;19.53;51.28;99944.81;4991053;28;20039;-51
2023/04/24 11:17:33;;;;;;;1.75;0.88;;;;;;;17.47;55.48;99928.88;4990868;28;20110;-50
2023/04/24 11:20:07;;;;;;;2.95;0.63;;;;;;;17.00;56.26;99930.22;4993216;28;20027;-51
2023/04/24 11:22:38;;;;;;;3.42;0.60;;;;;;;16.11;54.40;99934.94;4990372;28;20613;-51
2023/04/24 11:25:04;;;;;;;0.63;0.30;;;;;;;15.76;55.64;99925.34;4993734;28;20095;-50
2023/04/24 11:27:32;;;;;;;1.73;0.50;;;;;;;16.82;52.64;99935.25;4993136;28;20477;-50
2023/04/24 11:29:57;;;;;;;3.47;0.60;;;;;;;17.43;50.14;99923.81;4994276;28;20034;-51